Estación Meteorológica Peña el Pijo (Robertgarden) [ 02/02/23 20:38:06 CET ]

Fecha Hora Presion(HPa) Temp (°C) Humedad % Rocio (°C) Viento ( m/s) Direccion Lluvia 1Hora(mm) Lluvia 24H(mm) LLuvia Total(mm)
2012-Dec-06 01:01:11 1010.600 -2.9 80 -5.9         178.19
2012-Dec-06 02:03:21 1010.400 -3.4 82 -6.0         178.19
2012-Dec-06 03:01:18 1010.400 -3.2 83 -5.7         178.19
2012-Dec-06 04:01:12 1010.100 -3.4 84 -5.7         178.19
2012-Dec-06 05:01:17 1009.600 -3.8 84 -6.1         178.19
2012-Dec-06 06:01:11 1009.400 -3.8 86 -5.8         178.19
2012-Dec-06 07:01:14 1009.700 -4.1 85 -6.2         178.19
2012-Dec-06 08:01:14 1010.100 -3.7 86 -5.7         178.19
2012-Dec-06 09:01:16 1010.400 -3.4 87 -5.3         178.19
2012-Dec-06 10:01:14 1010.700 -0.3 86 -2.3         178.19
2012-Dec-06 11:01:13 1010.700 3.6 76 -0.2         178.19
2012-Dec-06 12:01:13 1010.500 7.2 62 0.4         178.19
2012-Dec-06 13:01:14 1009.600 11.8 44 -0.1         178.19
2012-Dec-06 14:01:13 1009.500 11.4 40 -1.7         178.19
2012-Dec-06 15:01:11 1009.200 10.7 37 -3.5         178.19
2012-Dec-06 16:01:13 1008.700 9.9 37 -4.2         178.19
2012-Dec-06 17:01:13 1009.100 8.3 45 -3.0         178.19
2012-Dec-06 18:01:14 1009.200 5.5 56 -2.6         178.19
2012-Dec-06 19:01:11 1009.500 3.9 62 -2.8         178.19
2012-Dec-06 20:01:14 1009.600 3.2 63 -3.2         178.19
2012-Dec-06 21:01:15 1009.100 1.8 68 -3.5         178.19
2012-Dec-06 22:01:12 1009.000 1.1 73 -3.3         178.19
2012-Dec-06 23:01:19 1009.200 0.6 76 -3.2         178.19

Temperatura Máxima:11°    Temperatura Mínima:-4°
Presión Máxima:1010.700 Hpa    Presión Mínima:1008.700 Hpa


Volver